createdAt,value
2022-12-13T00:00:15.489Z,11.75
2022-12-13T00:02:44.950Z,11.38
2022-12-13T00:05:15.875Z,11.23
2022-12-13T00:07:45.188Z,12.50
2022-12-13T00:10:14.853Z,11.60
2022-12-13T00:12:43.992Z,9.38
2022-12-13T00:15:13.455Z,11.00
2022-12-13T00:17:45.268Z,10.80
2022-12-13T00:20:15.999Z,11.23
2022-12-13T00:22:45.317Z,10.73
2022-12-13T00:25:14.646Z,11.52
2022-12-13T00:27:43.925Z,10.35
2022-12-13T00:30:13.863Z,10.90
2022-12-13T00:32:43.017Z,9.52
2022-12-13T00:35:12.336Z,9.65
2022-12-13T00:37:43.004Z,10.25
2022-12-13T00:40:13.368Z,11.27
2022-12-13T00:42:43.600Z,11.73
2022-12-13T00:45:13.546Z,12.73
2022-12-13T00:47:43.436Z,12.18
2022-12-13T00:50:12.732Z,11.25
2022-12-13T00:52:43.287Z,11.70
2022-12-13T00:55:12.947Z,10.85
2022-12-13T00:57:42.223Z,10.68
2022-12-13T01:00:13.048Z,10.20
2022-12-13T01:02:43.484Z,10.02
2022-12-13T01:05:13.763Z,10.82
2022-12-13T01:07:46.194Z,10.95
2022-12-13T01:10:15.735Z,11.45
2022-12-13T01:12:44.877Z,10.70
2022-12-13T01:15:16.421Z,10.77
2022-12-13T01:17:47.321Z,10.98
2022-12-13T01:20:16.496Z,11.63
2022-12-13T01:22:47.055Z,10.27
2022-12-13T01:25:16.582Z,10.45
2022-12-13T01:27:45.801Z,10.55
2022-12-13T01:30:15.161Z,11.63
2022-12-13T01:32:44.412Z,11.05
2022-12-13T01:35:14.917Z,11.10
2022-12-13T01:37:44.316Z,10.15
2022-12-13T01:40:16.132Z,9.75
2022-12-13T01:42:46.058Z,10.35
2022-12-13T01:45:26.160Z,10.23
2022-12-13T01:47:59.266Z,9.88
2022-12-13T01:50:34.293Z,9.00
2022-12-13T01:53:07.917Z,9.02
2022-12-13T01:55:41.768Z,9.52
2022-12-13T01:58:13.254Z,9.50
2022-12-13T02:00:42.746Z,9.82
2022-12-13T02:03:21.406Z,9.48
2022-12-13T02:06:00.423Z,10.65
2022-12-13T02:08:30.310Z,9.55
2022-12-13T02:11:09.065Z,9.88
2022-12-13T02:13:41.283Z,8.43
2022-12-13T02:16:23.045Z,11.27
2022-12-13T02:19:15.715Z,11.07
2022-12-13T02:22:00.087Z,10.15
2022-12-13T02:24:50.675Z,10.48
2022-12-13T02:27:52.330Z,9.90
2022-12-13T02:30:39.476Z,10.68
2022-12-13T02:33:38.089Z,10.30
2022-12-13T02:36:14.757Z,10.43
2022-12-13T02:38:54.506Z,10.23
2022-12-13T02:41:40.779Z,11.68
2022-12-13T02:44:22.678Z,12.15
2022-12-13T02:46:59.405Z,10.77
2022-12-13T02:49:33.822Z,9.75
2022-12-13T02:52:07.222Z,10.02
2022-12-13T02:54:37.307Z,10.93
2022-12-13T02:57:31.814Z,11.20
2022-12-13T03:00:07.137Z,12.88
2022-12-13T03:02:57.183Z,14.60
2022-12-13T03:05:57.894Z,13.13
2022-12-13T03:08:37.941Z,12.90
2022-12-13T03:11:12.049Z,11.93
2022-12-13T03:13:51.091Z,10.75
2022-12-13T03:16:28.301Z,11.43
2022-12-13T03:19:02.353Z,11.57
2022-12-13T03:21:43.936Z,11.27
2022-12-13T03:24:19.424Z,10.73
2022-12-13T03:26:50.106Z,11.25
2022-12-13T03:29:23.847Z,10.77
2022-12-13T03:31:54.389Z,10.20
2022-12-13T03:34:24.899Z,10.93
2022-12-13T03:36:54.534Z,10.85
2022-12-13T03:39:24.366Z,10.85
2022-12-13T03:41:53.648Z,11.23
2022-12-13T03:44:23.219Z,10.23
2022-12-13T03:46:53.150Z,9.68
2022-12-13T03:49:24.675Z,10.30
2022-12-13T03:51:56.105Z,10.02
2022-12-13T03:54:25.210Z,10.38
2022-12-13T03:56:54.350Z,10.23
2022-12-13T03:59:23.455Z,9.02
2022-12-13T04:01:52.641Z,11.10
2022-12-13T04:04:21.831Z,10.32
2022-12-13T04:06:52.406Z,10.40
2022-12-13T04:09:22.655Z,11.20
2022-12-13T04:12:09.240Z,10.38
2022-12-13T04:14:38.293Z,10.30
2022-12-13T04:17:07.373Z,9.40
2022-12-13T04:19:36.552Z,9.30
2022-12-13T04:22:07.165Z,9.32
2022-12-13T04:24:37.656Z,9.45
2022-12-13T04:27:06.816Z,9.60
2022-12-13T04:29:36.036Z,9.45
2022-12-13T04:32:26.511Z,10.68
2022-12-13T04:35:01.146Z,10.57
2022-12-13T04:37:32.772Z,8.93
2022-12-13T04:40:01.817Z,9.13
2022-12-13T04:42:31.636Z,8.32
2022-12-13T04:45:00.798Z,8.90
2022-12-13T04:47:30.124Z,9.23
2022-12-13T04:49:59.392Z,18.08
2022-12-13T04:52:29.009Z,13.80
2022-12-13T04:54:59.508Z,25.27
2022-12-13T04:57:28.692Z,21.13
2022-12-13T04:59:57.824Z,16.83
2022-12-13T05:02:27.181Z,14.63
2022-12-13T05:04:56.415Z,16.80
2022-12-13T05:07:26.787Z,12.02
2022-12-13T05:09:56.058Z,11.60
2022-12-13T05:12:26.708Z,10.65
2022-12-13T05:14:56.023Z,10.77
2022-12-13T05:17:25.169Z,9.88
2022-12-13T05:19:54.295Z,10.75
2022-12-13T05:22:23.390Z,9.82
2022-12-13T05:24:52.581Z,9.57
2022-12-13T05:27:23.708Z,9.63
2022-12-13T05:30:05.033Z,9.80
2022-12-13T05:32:44.144Z,10.23
2022-12-13T05:35:21.990Z,9.57
2022-12-13T05:37:53.673Z,14.77
2022-12-13T05:40:29.857Z,12.52
2022-12-13T05:43:02.163Z,10.75
2022-12-13T05:45:34.695Z,11.18
2022-12-13T05:48:05.288Z,11.48
2022-12-13T05:50:43.793Z,10.10
2022-12-13T05:53:14.255Z,12.85
2022-12-13T05:56:04.983Z,15.25
2022-12-13T05:58:40.535Z,19.08
2022-12-13T06:01:19.861Z,11.45
2022-12-13T06:03:49.348Z,14.02
2022-12-13T06:06:18.862Z,21.73
2022-12-13T06:08:48.918Z,36.72
2022-12-13T06:11:31.440Z,29.05
2022-12-13T06:14:21.661Z,20.33
2022-12-13T06:16:59.311Z,15.60
2022-12-13T06:19:30.021Z,11.13
2022-12-13T06:22:06.527Z,14.27
2022-12-13T06:24:36.807Z,13.20
2022-12-13T06:27:06.502Z,11.43
2022-12-13T06:29:35.639Z,12.73
2022-12-13T06:32:07.341Z,16.80
2022-12-13T06:34:37.762Z,23.85
2022-12-13T06:37:09.085Z,48.78
2022-12-13T06:39:38.274Z,63.88
2022-12-13T06:42:14.865Z,40.17
2022-12-13T06:44:55.718Z,19.60
2022-12-13T06:47:31.364Z,12.77
2022-12-13T06:50:05.011Z,9.98
2022-12-13T06:52:35.163Z,10.23
2022-12-13T06:55:04.433Z,11.95
2022-12-13T06:57:35.914Z,10.27
2022-12-13T07:00:06.932Z,10.50
2022-12-13T07:02:39.169Z,9.02
2022-12-13T07:05:10.708Z,9.10
2022-12-13T07:07:39.841Z,10.30
2022-12-13T07:10:12.656Z,10.85
2022-12-13T07:12:52.248Z,11.00
2022-12-13T07:15:21.362Z,9.90
2022-12-13T07:17:52.945Z,9.80
2022-12-13T07:20:23.625Z,9.90
2022-12-13T07:22:58.722Z,10.15
2022-12-13T07:25:29.679Z,10.60
2022-12-13T07:28:02.416Z,10.00
2022-12-13T07:30:41.258Z,11.30
2022-12-13T07:33:22.173Z,12.27
2022-12-13T07:35:55.320Z,12.00
2022-12-13T07:38:24.937Z,11.38
2022-12-13T07:40:58.354Z,12.98
2022-12-13T07:43:30.421Z,13.02
2022-12-13T07:46:00.438Z,11.85
2022-12-13T07:48:31.604Z,10.73
2022-12-13T07:51:08.127Z,11.85
2022-12-13T07:53:40.470Z,10.77
2022-12-13T07:56:13.055Z,10.60
2022-12-13T07:58:45.161Z,12.45
2022-12-13T08:01:14.703Z,11.48
2022-12-13T08:03:46.540Z,11.32
2022-12-13T08:06:19.303Z,11.48
2022-12-13T08:08:51.193Z,10.70
2022-12-13T08:11:20.469Z,10.18
2022-12-13T08:13:50.448Z,10.30
2022-12-13T08:16:27.224Z,9.45
2022-12-13T08:19:06.631Z,10.43
2022-12-13T08:21:53.908Z,9.27
2022-12-13T08:24:24.705Z,8.80
2022-12-13T08:26:57.539Z,9.43
2022-12-13T08:29:34.301Z,9.35
2022-12-13T08:32:06.573Z,9.00
2022-12-13T08:34:37.742Z,8.60
2022-12-13T08:37:07.207Z,9.50
2022-12-13T08:39:38.588Z,9.05
2022-12-13T08:42:15.008Z,9.02
2022-12-13T08:44:49.866Z,8.48
2022-12-13T08:47:22.964Z,8.07
2022-12-13T08:50:03.823Z,8.50
2022-12-13T08:52:41.703Z,8.90
2022-12-13T08:55:31.910Z,8.35
2022-12-13T08:58:08.733Z,7.68
2022-12-13T09:00:40.971Z,8.35
2022-12-13T09:03:10.666Z,8.38
2022-12-13T09:05:42.471Z,8.70
2022-12-13T09:08:23.293Z,8.00
2022-12-13T09:11:10.588Z,8.15
2022-12-13T09:13:44.038Z,8.83
2022-12-13T09:16:23.160Z,8.70
2022-12-13T09:18:54.864Z,8.13
2022-12-13T09:21:30.979Z,9.60
2022-12-13T09:24:05.624Z,7.78
2022-12-13T09:26:57.058Z,8.35
2022-12-13T09:29:26.856Z,7.43
2022-12-13T09:31:56.025Z,7.85
2022-12-13T09:34:25.299Z,8.10
2022-12-13T09:37:01.593Z,8.55
2022-12-13T09:39:39.828Z,7.15
2022-12-13T09:42:18.268Z,7.82
2022-12-13T09:45:03.320Z,7.25
2022-12-13T09:47:37.418Z,8.25
2022-12-13T09:50:15.608Z,8.48
2022-12-13T09:52:47.470Z,8.98
2022-12-13T09:55:23.929Z,7.32
2022-12-13T09:58:02.806Z,7.85
2022-12-13T10:01:00.568Z,8.68
2022-12-13T10:03:34.029Z,7.95
2022-12-13T10:06:30.352Z,7.78
2022-12-13T10:09:12.090Z,8.55
2022-12-13T10:13:14.935Z,7.40
2022-12-13T10:15:54.750Z,7.25
2022-12-13T10:18:35.574Z,7.97
2022-12-13T10:21:13.962Z,7.53
2022-12-13T10:24:24.670Z,7.70
2022-12-13T10:27:17.609Z,10.93
2022-12-13T10:30:08.086Z,8.88
2022-12-13T10:33:06.193Z,7.10
2022-12-13T10:36:09.098Z,7.43
2022-12-13T10:38:41.061Z,8.15
2022-12-13T10:41:37.297Z,7.95
2022-12-13T10:44:22.951Z,7.28
2022-12-13T10:47:05.033Z,8.25
2022-12-13T10:49:44.557Z,7.47
2022-12-13T10:52:31.069Z,8.38
2022-12-13T10:55:22.731Z,8.00
2022-12-13T10:57:55.586Z,9.57
2022-12-13T11:00:43.019Z,7.45
2022-12-13T11:03:30.320Z,8.02
2022-12-13T11:06:07.766Z,8.05
2022-12-13T11:08:37.617Z,8.43
2022-12-13T11:11:10.132Z,8.93
2022-12-13T11:13:46.891Z,8.20
2022-12-13T11:16:28.209Z,7.57
2022-12-13T11:19:05.056Z,9.10
2022-12-13T11:21:38.521Z,8.27
2022-12-13T11:24:23.308Z,7.95
2022-12-13T11:27:00.036Z,8.10
2022-12-13T11:29:53.082Z,9.57
2022-12-13T11:32:44.525Z,9.00
2022-12-13T11:35:27.235Z,7.85
2022-12-13T11:38:09.108Z,9.45
2022-12-13T11:40:45.601Z,9.30
2022-12-13T11:43:29.493Z,8.55
2022-12-13T11:46:03.214Z,9.05
2022-12-13T11:48:44.351Z,9.45
2022-12-13T11:51:24.039Z,9.77
2022-12-13T11:54:01.277Z,9.63
2022-12-13T11:59:26.584Z,9.02
2022-12-13T12:02:05.214Z,9.10
2022-12-13T12:04:46.340Z,8.43
2022-12-13T12:07:36.968Z,9.13
2022-12-13T12:10:25.443Z,10.10
2022-12-13T12:13:14.583Z,9.82
2022-12-13T12:15:56.978Z,9.52
2022-12-13T12:18:35.631Z,8.93
2022-12-13T12:21:49.516Z,9.45
2022-12-13T12:24:31.543Z,8.77
2022-12-13T12:27:22.771Z,8.77
2022-12-13T12:30:11.371Z,9.85
2022-12-13T12:32:51.100Z,11.30
2022-12-13T12:35:53.460Z,8.20
2022-12-13T12:38:46.079Z,8.98
2022-12-13T12:41:40.620Z,8.68
2022-12-13T12:44:30.964Z,8.45
2022-12-13T12:50:26.242Z,7.53
2022-12-13T12:53:24.607Z,7.65
2022-12-13T12:58:41.287Z,8.25
2022-12-13T13:01:26.189Z,8.13
2022-12-13T13:04:01.855Z,9.40
2022-12-13T13:06:39.812Z,9.52
2022-12-13T13:09:12.460Z,8.65
2022-12-13T13:11:46.972Z,7.68
2022-12-13T13:14:36.739Z,8.13
2022-12-13T13:17:49.221Z,7.93
2022-12-13T13:20:26.781Z,7.00
2022-12-13T13:23:44.040Z,6.53
2022-12-13T13:28:46.521Z,6.57
2022-12-13T13:31:16.152Z,8.82
2022-12-13T13:33:48.410Z,7.40
2022-12-13T13:36:47.774Z,7.05
2022-12-13T13:39:19.601Z,10.52
2022-12-13T13:42:11.056Z,12.15
2022-12-13T13:45:04.588Z,8.25
2022-12-13T13:47:42.454Z,7.72
2022-12-13T13:51:00.917Z,7.70
2022-12-13T13:54:31.612Z,9.00
2022-12-13T13:58:09.481Z,7.72
2022-12-13T14:01:23.814Z,8.73
2022-12-13T14:04:39.715Z,8.05
2022-12-13T14:07:53.556Z,9.02
2022-12-13T14:10:51.639Z,8.35
2022-12-13T14:14:27.189Z,8.85
2022-12-13T14:17:34.580Z,8.65
2022-12-13T14:20:31.810Z,8.18
2022-12-13T14:23:09.039Z,8.65
2022-12-13T14:26:03.597Z,7.72
2022-12-13T14:28:48.072Z,9.52
2022-12-13T14:31:22.606Z,8.57
2022-12-13T14:33:57.082Z,8.77
2022-12-13T14:36:39.410Z,9.77
2022-12-13T14:39:25.261Z,8.63
2022-12-13T14:41:57.495Z,10.75
2022-12-13T14:44:30.034Z,9.40
2022-12-13T14:47:03.176Z,10.00
2022-12-13T14:49:39.449Z,10.15
2022-12-13T14:52:26.637Z,9.80
2022-12-13T14:57:30.886Z,10.75
2022-12-13T15:00:21.939Z,11.93
2022-12-13T15:02:56.774Z,12.60
2022-12-13T15:05:31.299Z,12.63
2022-12-13T15:08:10.896Z,12.90
2022-12-13T15:10:48.345Z,13.05
2022-12-13T15:13:30.257Z,12.85
2022-12-13T15:16:10.100Z,13.65
2022-12-13T15:19:29.474Z,14.27
2022-12-13T15:22:16.467Z,14.05
2022-12-13T15:24:50.475Z,14.65
2022-12-13T15:27:27.962Z,14.13
2022-12-13T15:29:57.735Z,13.88
2022-12-13T15:32:28.794Z,15.10
2022-12-13T15:34:58.335Z,13.45
2022-12-13T15:37:33.587Z,15.05
2022-12-13T15:40:09.806Z,15.98
2022-12-13T15:42:46.867Z,14.83
2022-12-13T15:47:51.673Z,16.58
2022-12-13T15:50:43.849Z,15.25
2022-12-13T15:53:26.061Z,15.60
2022-12-13T15:55:56.870Z,17.30
2022-12-13T15:58:29.914Z,16.95
2022-12-13T16:01:05.174Z,15.82
2022-12-13T16:03:43.651Z,15.52
2022-12-13T16:06:19.515Z,16.17
2022-12-13T16:08:52.643Z,17.13
2022-12-13T16:11:31.099Z,18.83
2022-12-13T16:17:25.688Z,16.58
2022-12-13T16:20:05.988Z,22.10
2022-12-13T16:22:38.876Z,23.33
2022-12-13T16:25:13.452Z,24.55
2022-12-13T16:27:42.738Z,23.63
2022-12-13T16:30:24.464Z,19.75
2022-12-13T16:33:18.205Z,20.48
2022-12-13T16:35:43.232Z,20.40
2022-12-13T16:38:25.730Z,18.63
2022-12-13T16:41:08.867Z,18.10
2022-12-13T16:43:47.380Z,19.15
2022-12-13T16:47:16.028Z,16.85
2022-12-13T16:49:21.717Z,17.25
2022-12-13T16:51:51.086Z,16.70
2022-12-13T16:54:23.898Z,16.30
2022-12-13T16:56:55.446Z,16.60
2022-12-13T16:59:27.091Z,17.13
2022-12-13T17:01:57.314Z,17.08
2022-12-13T17:04:27.426Z,18.48
2022-12-13T17:06:56.643Z,18.20
2022-12-13T17:09:26.997Z,18.63
2022-12-13T17:12:16.597Z,18.10
2022-12-13T17:14:45.909Z,17.90
2022-12-13T17:17:17.757Z,17.73
2022-12-13T17:19:47.213Z,18.70
2022-12-13T17:22:21.125Z,18.60
2022-12-13T17:24:50.300Z,17.40
2022-12-13T17:27:20.674Z,16.95
2022-12-13T17:29:49.912Z,17.25
2022-12-13T17:32:19.070Z,17.60
2022-12-13T17:34:49.843Z,18.83
2022-12-13T17:37:18.975Z,21.42
2022-12-13T17:39:47.936Z,23.95
2022-12-13T17:42:20.674Z,23.48
2022-12-13T17:44:49.701Z,22.38
2022-12-13T17:47:19.852Z,20.50
2022-12-13T17:49:56.083Z,22.77
2022-12-13T17:52:27.252Z,22.17
2022-12-13T17:55:00.800Z,22.52
2022-12-13T17:57:33.547Z,23.33
2022-12-13T18:00:08.947Z,23.15
2022-12-13T18:02:55.059Z,22.05
2022-12-13T18:05:26.476Z,21.02
2022-12-13T18:07:55.519Z,21.58
2022-12-13T18:10:29.858Z,21.83
2022-12-13T18:13:01.396Z,22.92
2022-12-13T18:15:30.609Z,23.63
2022-12-13T18:18:11.204Z,22.15
2022-12-13T18:20:42.312Z,24.17
2022-12-13T18:23:13.872Z,24.77
2022-12-13T18:25:46.615Z,21.42
2022-12-13T18:28:20.418Z,22.05
2022-12-13T18:30:51.847Z,24.17
2022-12-13T18:33:23.764Z,25.63
2022-12-13T18:35:53.315Z,26.70
2022-12-13T18:38:26.151Z,25.15
2022-12-13T18:40:57.266Z,25.27
2022-12-13T18:43:28.064Z,25.08
2022-12-13T18:45:57.219Z,22.80
2022-12-13T18:48:26.773Z,20.98
2022-12-13T18:51:03.939Z,21.63
2022-12-13T18:53:37.328Z,20.70
2022-12-13T18:56:17.755Z,20.52
2022-12-13T18:58:53.935Z,20.90
2022-12-13T19:01:28.210Z,20.95
2022-12-13T19:03:58.143Z,22.55
2022-12-13T19:06:29.277Z,23.88
2022-12-13T19:08:59.827Z,24.17
2022-12-13T19:11:30.143Z,25.00
2022-12-13T19:14:00.925Z,24.85
2022-12-13T19:16:32.809Z,23.98
2022-12-13T19:19:02.066Z,24.88
2022-12-13T19:21:31.469Z,24.23
2022-12-13T19:24:02.537Z,26.77
2022-12-13T19:26:32.817Z,27.60
2022-12-13T19:29:04.809Z,26.65
2022-12-13T19:31:37.165Z,25.35
2022-12-13T19:34:06.585Z,26.40
2022-12-13T19:36:35.878Z,25.08
2022-12-13T19:39:06.565Z,25.20
2022-12-13T19:41:36.730Z,25.77
2022-12-13T19:44:09.247Z,25.63
2022-12-13T19:46:40.575Z,26.48
2022-12-13T19:49:11.739Z,24.48
2022-12-13T19:51:41.764Z,25.92
2022-12-13T19:54:11.274Z,25.48
2022-12-13T19:56:40.565Z,24.92
2022-12-13T19:59:12.170Z,23.88
2022-12-13T20:01:41.496Z,24.92
2022-12-13T20:04:11.148Z,25.33
2022-12-13T20:06:40.784Z,24.85
2022-12-13T20:09:10.344Z,24.63
2022-12-13T20:11:39.760Z,25.73
2022-12-13T20:14:10.693Z,23.85
2022-12-13T20:16:41.893Z,23.00
2022-12-13T20:19:11.863Z,25.80
2022-12-13T20:21:41.374Z,24.13
2022-12-13T20:24:12.042Z,20.73
2022-12-13T20:26:41.371Z,23.88
2022-12-13T20:29:14.470Z,22.45
2022-12-13T20:31:44.700Z,21.02
2022-12-13T20:34:18.052Z,22.20
2022-12-13T20:36:47.355Z,19.80
2022-12-13T20:39:16.447Z,21.40
2022-12-13T20:41:45.605Z,21.85
2022-12-13T20:44:16.400Z,22.60
2022-12-13T20:46:45.705Z,21.30
2022-12-13T20:49:14.846Z,20.92
2022-12-13T20:51:44.324Z,21.20
2022-12-13T20:54:13.714Z,20.75
2022-12-13T20:56:43.111Z,20.63
2022-12-13T20:59:15.458Z,21.20
2022-12-13T21:01:48.908Z,23.67
2022-12-13T21:04:21.646Z,21.20
2022-12-13T21:06:50.728Z,20.83
2022-12-13T21:09:19.992Z,21.10
2022-12-13T21:11:50.374Z,20.10
2022-12-13T21:14:25.188Z,20.27
2022-12-13T21:16:56.420Z,21.92
2022-12-13T21:19:30.104Z,20.40
2022-12-13T21:22:01.458Z,21.38
2022-12-13T21:24:31.122Z,21.33
2022-12-13T21:27:00.801Z,21.20
2022-12-13T21:29:31.428Z,23.73
2022-12-13T21:32:01.531Z,25.00
2022-12-13T21:34:31.316Z,22.38
2022-12-13T21:37:00.639Z,23.02
2022-12-13T21:39:31.131Z,23.08
2022-12-13T21:42:00.367Z,23.90
2022-12-13T21:44:30.883Z,24.15
2022-12-13T21:47:15.364Z,23.88
2022-12-13T21:49:48.446Z,24.20
2022-12-13T21:52:18.726Z,24.40
2022-12-13T21:54:47.798Z,24.88
2022-12-13T21:57:34.027Z,24.70
2022-12-13T22:00:08.811Z,25.08
2022-12-13T22:02:42.082Z,24.10
2022-12-13T22:05:12.202Z,25.67
2022-12-13T22:07:41.297Z,24.73
2022-12-13T22:10:11.384Z,24.73
2022-12-13T22:12:43.119Z,23.95
2022-12-13T22:15:19.065Z,23.10
2022-12-13T22:17:48.400Z,24.45
2022-12-13T22:20:19.830Z,24.73
2022-12-13T22:22:49.021Z,24.75
2022-12-13T22:25:19.132Z,24.92
2022-12-13T22:27:48.275Z,23.83
2022-12-13T22:30:19.032Z,24.45
2022-12-13T22:32:48.274Z,23.95
2022-12-13T22:35:17.482Z,23.17
2022-12-13T22:37:50.018Z,23.60
2022-12-13T22:40:19.614Z,24.20
2022-12-13T22:42:48.858Z,23.05
2022-12-13T22:45:19.460Z,24.33
2022-12-13T22:47:50.911Z,24.98
2022-12-13T22:50:21.442Z,24.42
2022-12-13T22:52:50.653Z,21.88
2022-12-13T22:55:19.899Z,25.15
2022-12-13T22:57:49.730Z,24.95
2022-12-13T23:00:20.667Z,26.27
2022-12-13T23:02:49.917Z,25.90
2022-12-13T23:05:20.055Z,25.77
2022-12-13T23:07:49.357Z,25.38
2022-12-13T23:10:36.223Z,25.13
2022-12-13T23:13:05.587Z,24.23
2022-12-13T23:15:38.963Z,24.83
2022-12-13T23:18:08.016Z,27.48
2022-12-13T23:20:37.275Z,25.33
2022-12-13T23:23:07.621Z,25.42
2022-12-13T23:25:36.912Z,24.63
2022-12-13T23:28:06.547Z,25.58
2022-12-13T23:30:37.733Z,27.60
2022-12-13T23:33:07.169Z,26.55
2022-12-13T23:35:36.591Z,26.13
2022-12-13T23:38:05.712Z,25.90
2022-12-13T23:40:35.353Z,26.20
2022-12-13T23:43:07.351Z,27.70
2022-12-13T23:45:40.699Z,25.67
2022-12-13T23:48:09.974Z,26.00
2022-12-13T23:50:39.709Z,26.00
2022-12-13T23:53:09.000Z,26.48
2022-12-13T23:55:38.600Z,26.33
2022-12-13T23:58:07.930Z,26.67
